sensor_id;sensor_type;location;lat;lon;timestamp;temperature;humidity
16477;DHT22;8349;50.928;6.376;2022-10-13T03:01:36;11.10;99.90
16477;DHT22;8349;50.928;6.376;2022-10-13T03:04:05;11.00;99.90
16477;DHT22;8349;50.928;6.376;2022-10-13T03:06:32;11.20;99.90
16477;DHT22;8349;50.928;6.376;2022-10-13T03:08:59;11.10;99.90
16477;DHT22;8349;50.928;6.376;2022-10-13T03:11:25;11.10;99.90
16477;DHT22;8349;50.928;6.376;2022-10-13T03:13:52;11.10;99.90
16477;DHT22;8349;50.928;6.376;2022-10-13T03:16:19;11.10;99.90
16477;DHT22;8349;50.928;6.376;2022-10-13T03:18:47;11.00;99.90
16477;DHT22;8349;50.928;6.376;2022-10-13T03:21:13;11.00;99.90
16477;DHT22;8349;50.928;6.376;2022-10-13T03:23:40;10.90;99.90
16477;DHT22;8349;50.928;6.376;2022-10-13T03:26:07;10.90;99.90
16477;DHT22;8349;50.928;6.376;2022-10-13T03:28:34;10.90;99.90
16477;DHT22;8349;50.928;6.376;2022-10-13T03:31:01;10.90;99.90
16477;DHT22;8349;50.928;6.376;2022-10-13T03:33:28;10.90;99.90
16477;DHT22;8349;50.928;6.376;2022-10-13T03:35:58;10.80;99.90
16477;DHT22;8349;50.928;6.376;2022-10-13T03:38:25;10.80;99.90
16477;DHT22;8349;50.928;6.376;2022-10-13T03:40:52;10.90;99.90
16477;DHT22;8349;50.928;6.376;2022-10-13T03:43:19;10.80;99.90
16477;DHT22;8349;50.928;6.376;2022-10-13T03:45:52;10.80;99.90
16477;DHT22;8349;50.928;6.376;2022-10-13T03:48:19;10.80;99.90
16477;DHT22;8349;50.928;6.376;2022-10-13T03:50:46;10.80;99.90
16477;DHT22;8349;50.928;6.376;2022-10-13T03:53:14;10.80;99.90
16477;DHT22;8349;50.928;6.376;2022-10-13T03:55:41;10.80;99.90
16477;DHT22;8349;50.928;6.376;2022-10-13T03:58:08;10.80;99.90
16477;DHT22;8349;50.928;6.376;2022-10-13T04:00:35;10.80;99.90
16477;DHT22;8349;50.928;6.376;2022-10-13T04:03:01;10.90;99.90
16477;DHT22;8349;50.928;6.376;2022-10-13T04:05:28;10.90;99.90
16477;DHT22;8349;50.928;6.376;2022-10-13T04:07:55;10.90;99.90
16477;DHT22;8349;50.928;6.376;2022-10-13T04:10:27;10.80;99.90
16477;DHT22;8349;50.928;6.376;2022-10-13T04:12:54;10.90;99.90
16477;DHT22;8349;50.928;6.376;2022-10-13T04:15:20;10.90;99.90
16477;DHT22;8349;50.928;6.376;2022-10-13T04:17:47;10.90;99.90
16477;DHT22;8349;50.928;6.376;2022-10-13T04:20:14;10.90;99.90
16477;DHT22;8349;50.928;6.376;2022-10-13T04:22:41;10.90;99.90
16477;DHT22;8349;50.928;6.376;2022-10-13T04:25:08;11.00;99.90
16477;DHT22;8349;50.928;6.376;2022-10-13T04:27:36;10.90;99.90
16477;DHT22;8349;50.928;6.376;2022-10-13T04:30:04;10.90;99.90
16477;DHT22;8349;50.928;6.376;2022-10-13T04:32:31;10.80;99.90
16477;DHT22;8349;50.928;6.376;2022-10-13T04:35:01;10.80;99.90
16477;DHT22;8349;50.928;6.376;2022-10-13T04:37:27;10.80;99.90
16477;DHT22;8349;50.928;6.376;2022-10-13T04:39:54;10.70;99.90
16477;DHT22;8349;50.928;6.376;2022-10-13T04:42:21;10.70;99.90
16477;DHT22;8349;50.928;6.376;2022-10-13T04:44:49;10.70;99.90
16477;DHT22;8349;50.928;6.376;2022-10-13T04:47:19;10.70;99.90
16477;DHT22;8349;50.928;6.376;2022-10-13T04:49:46;10.70;99.90
16477;DHT22;8349;50.928;6.376;2022-10-13T04:52:13;10.70;99.90
16477;DHT22;8349;50.928;6.376;2022-10-13T04:54:40;10.70;99.90
16477;DHT22;8349;50.928;6.376;2022-10-13T04:57:07;10.70;99.90
16477;DHT22;8349;50.928;6.376;2022-10-13T04:59:34;10.80;99.90
16477;DHT22;8349;50.928;6.376;2022-10-13T05:02:02;10.80;99.90
16477;DHT22;8349;50.928;6.376;2022-10-13T05:04:29;10.70;99.90
16477;DHT22;8349;50.928;6.376;2022-10-13T05:06:56;10.70;99.90
16477;DHT22;8349;50.928;6.376;2022-10-13T05:09:22;10.70;99.90
16477;DHT22;8349;50.928;6.376;2022-10-13T05:11:49;10.70;99.90
16477;DHT22;8349;50.928;6.376;2022-10-13T05:14:16;10.70;99.90
16477;DHT22;8349;50.928;6.376;2022-10-13T05:16:42;10.80;99.90
16477;DHT22;8349;50.928;6.376;2022-10-13T05:19:15;10.80;99.90
16477;DHT22;8349;50.928;6.376;2022-10-13T05:21:42;10.70;99.90
16477;DHT22;8349;50.928;6.376;2022-10-13T05:24:08;10.80;99.90
16477;DHT22;8349;50.928;6.376;2022-10-13T05:26:39;10.80;99.90
16477;DHT22;8349;50.928;6.376;2022-10-13T05:29:06;10.80;99.90
16477;DHT22;8349;50.928;6.376;2022-10-13T05:31:33;10.80;99.90
16477;DHT22;8349;50.928;6.376;2022-10-13T05:34:00;10.80;99.90
16477;DHT22;8349;50.928;6.376;2022-10-13T05:36:29;10.70;99.90
16477;DHT22;8349;50.928;6.376;2022-10-13T05:38:57;10.70;99.90
16477;DHT22;8349;50.928;6.376;2022-10-13T05:41:24;10.70;99.90
16477;DHT22;8349;50.928;6.376;2022-10-13T05:43:52;10.60;99.90
16477;DHT22;8349;50.928;6.376;2022-10-13T05:46:19;10.60;99.90
16477;DHT22;8349;50.928;6.376;2022-10-13T05:48:46;10.60;99.90
16477;DHT22;8349;50.928;6.376;2022-10-13T05:51:14;10.70;99.90
16477;DHT22;8349;50.928;6.376;2022-10-13T05:53:44;10.70;99.90
16477;DHT22;8349;50.928;6.376;2022-10-13T05:56:13;10.70;99.90
16477;DHT22;8349;50.928;6.376;2022-10-13T05:58:41;10.70;99.90
16477;DHT22;8349;50.928;6.376;2022-10-13T06:01:11;10.60;99.90
16477;DHT22;8349;50.928;6.376;2022-10-13T06:03:38;10.70;99.90
16477;DHT22;8349;50.928;6.376;2022-10-13T06:06:06;10.70;99.90
16477;DHT22;8349;50.928;6.376;2022-10-13T06:08:33;10.60;99.90
16477;DHT22;8349;50.928;6.376;2022-10-13T06:11:02;10.60;99.90
16477;DHT22;8349;50.928;6.376;2022-10-13T06:13:29;10.60;99.90
16477;DHT22;8349;50.928;6.376;2022-10-13T06:15:55;10.60;99.90
16477;DHT22;8349;50.928;6.376;2022-10-13T06:18:22;10.70;99.90
16477;DHT22;8349;50.928;6.376;2022-10-13T06:20:49;10.80;99.90
16477;DHT22;8349;50.928;6.376;2022-10-13T06:23:16;10.80;99.90
16477;DHT22;8349;50.928;6.376;2022-10-13T06:25:46;10.80;99.90
16477;DHT22;8349;50.928;6.376;2022-10-13T06:28:15;10.90;99.90
16477;DHT22;8349;50.928;6.376;2022-10-13T06:30:43;10.90;99.90
16477;DHT22;8349;50.928;6.376;2022-10-13T06:33:12;11.00;99.90
16477;DHT22;8349;50.928;6.376;2022-10-13T06:35:39;11.00;99.90
16477;DHT22;8349;50.928;6.376;2022-10-13T06:38:06;11.00;99.90
16477;DHT22;8349;50.928;6.376;2022-10-13T06:40:35;11.00;99.90
16477;DHT22;8349;50.928;6.376;2022-10-13T06:43:02;11.10;99.90
16477;DHT22;8349;50.928;6.376;2022-10-13T06:45:32;11.20;99.90
16477;DHT22;8349;50.928;6.376;2022-10-13T06:47:59;11.20;99.90
16477;DHT22;8349;50.928;6.376;2022-10-13T06:50:26;11.30;99.90
16477;DHT22;8349;50.928;6.376;2022-10-13T06:52:53;11.40;99.90
16477;DHT22;8349;50.928;6.376;2022-10-13T06:55:20;11.40;99.90
16477;DHT22;8349;50.928;6.376;2022-10-13T06:57:47;11.40;99.90
16477;DHT22;8349;50.928;6.376;2022-10-13T07:00:14;11.50;99.90
16477;DHT22;8349;50.928;6.376;2022-10-13T07:02:43;11.50;99.90
16477;DHT22;8349;50.928;6.376;2022-10-13T07:05:11;11.60;99.90
16477;DHT22;8349;50.928;6.376;2022-10-13T07:07:39;11.70;99.90
16477;DHT22;8349;50.928;6.376;2022-10-13T07:10:05;11.80;99.90
16477;DHT22;8349;50.928;6.376;2022-10-13T07:12:32;11.90;99.90
16477;DHT22;8349;50.928;6.376;2022-10-13T07:14:59;12.00;99.90
16477;DHT22;8349;50.928;6.376;2022-10-13T07:17:26;12.10;99.90
16477;DHT22;8349;50.928;6.376;2022-10-13T07:19:54;12.10;99.90
16477;DHT22;8349;50.928;6.376;2022-10-13T07:22:21;12.20;99.90
16477;DHT22;8349;50.928;6.376;2022-10-13T07:24:47;12.20;99.90
16477;DHT22;8349;50.928;6.376;2022-10-13T07:27:14;12.30;99.90
16477;DHT22;8349;50.928;6.376;2022-10-13T07:29:41;12.30;99.90
16477;DHT22;8349;50.928;6.376;2022-10-13T07:32:07;12.40;99.90
16477;DHT22;8349;50.928;6.376;2022-10-13T07:34:34;12.40;99.90
16477;DHT22;8349;50.928;6.376;2022-10-13T07:37:03;12.50;99.90
16477;DHT22;8349;50.928;6.376;2022-10-13T07:39:31;12.60;99.90
16477;DHT22;8349;50.928;6.376;2022-10-13T07:41:57;12.70;99.90
16477;DHT22;8349;50.928;6.376;2022-10-13T07:44:24;12.70;99.90
16477;DHT22;8349;50.928;6.376;2022-10-13T07:46:51;12.90;99.90
16477;DHT22;8349;50.928;6.376;2022-10-13T07:49:18;13.00;99.90
16477;DHT22;8349;50.928;6.376;2022-10-13T07:51:44;13.10;99.90
16477;DHT22;8349;50.928;6.376;2022-10-13T07:54:13;13.30;99.90
16477;DHT22;8349;50.928;6.376;2022-10-13T07:56:39;13.40;99.90
16477;DHT22;8349;50.928;6.376;2022-10-13T07:59:08;13.60;99.90
16477;DHT22;8349;50.928;6.376;2022-10-13T08:01:35;13.70;99.90
16477;DHT22;8349;50.928;6.376;2022-10-13T08:04:02;13.80;99.90
16477;DHT22;8349;50.928;6.376;2022-10-13T08:06:29;14.00;99.90
16477;DHT22;8349;50.928;6.376;2022-10-13T08:08:56;14.10;99.90
16477;DHT22;8349;50.928;6.376;2022-10-13T08:11:26;14.30;99.90
16477;DHT22;8349;50.928;6.376;2022-10-13T08:13:53;14.40;99.90
16477;DHT22;8349;50.928;6.376;2022-10-13T08:16:20;14.50;99.90
16477;DHT22;8349;50.928;6.376;2022-10-13T08:18:47;14.60;99.90
16477;DHT22;8349;50.928;6.376;2022-10-13T08:21:14;14.70;99.90
16477;DHT22;8349;50.928;6.376;2022-10-13T08:23:42;14.80;99.90
16477;DHT22;8349;50.928;6.376;2022-10-13T08:26:12;14.80;99.90
16477;DHT22;8349;50.928;6.376;2022-10-13T08:28:41;14.90;99.90
16477;DHT22;8349;50.928;6.376;2022-10-13T08:31:08;14.90;99.90
16477;DHT22;8349;50.928;6.376;2022-10-13T08:33:35;15.00;99.90
16477;DHT22;8349;50.928;6.376;2022-10-13T08:36:04;15.00;99.90
16477;DHT22;8349;50.928;6.376;2022-10-13T08:38:31;15.20;99.90
16477;DHT22;8349;50.928;6.376;2022-10-13T08:40:58;15.20;99.90
16477;DHT22;8349;50.928;6.376;2022-10-13T08:43:25;15.20;99.90
16477;DHT22;8349;50.928;6.376;2022-10-13T08:45:55;15.30;99.90
16477;DHT22;8349;50.928;6.376;2022-10-13T08:48:24;15.50;99.90
16477;DHT22;8349;50.928;6.376;2022-10-13T08:50:53;15.60;99.90
16477;DHT22;8349;50.928;6.376;2022-10-13T08:53:21;15.70;99.90
16477;DHT22;8349;50.928;6.376;2022-10-13T08:55:51;15.90;99.90
16477;DHT22;8349;50.928;6.376;2022-10-13T08:58:21;16.10;99.90
16477;DHT22;8349;50.928;6.376;2022-10-13T09:00:50;16.30;99.90
16477;DHT22;8349;50.928;6.376;2022-10-13T09:03:23;16.40;99.90
16477;DHT22;8349;50.928;6.376;2022-10-13T09:06:02;16.40;99.90
16477;DHT22;8349;50.928;6.376;2022-10-13T09:08:36;16.60;99.90
16477;DHT22;8349;50.928;6.376;2022-10-13T09:11:05;16.70;99.90
16477;DHT22;8349;50.928;6.376;2022-10-13T09:13:32;16.70;99.90
16477;DHT22;8349;50.928;6.376;2022-10-13T09:15:58;16.80;99.90
16477;DHT22;8349;50.928;6.376;2022-10-13T09:18:30;16.80;99.90
16477;DHT22;8349;50.928;6.376;2022-10-13T09:21:10;17.00;99.90
16477;DHT22;8349;50.928;6.376;2022-10-13T09:23:41;17.00;99.90
16477;DHT22;8349;50.928;6.376;2022-10-13T09:26:08;16.90;99.90
16477;DHT22;8349;50.928;6.376;2022-10-13T09:28:40;16.80;99.90
16477;DHT22;8349;50.928;6.376;2022-10-13T09:31:13;16.80;99.90
16477;DHT22;8349;50.928;6.376;2022-10-13T09:33:41;16.70;99.90
16477;DHT22;8349;50.928;6.376;2022-10-13T09:36:09;16.70;99.90
16477;DHT22;8349;50.928;6.376;2022-10-13T09:38:37;16.60;99.90
16477;DHT22;8349;50.928;6.376;2022-10-13T09:41:05;16.50;99.90
16477;DHT22;8349;50.928;6.376;2022-10-13T09:43:35;16.50;99.90
16477;DHT22;8349;50.928;6.376;2022-10-13T09:46:02;16.30;99.90
16477;DHT22;8349;50.928;6.376;2022-10-13T09:48:30;16.20;99.90
16477;DHT22;8349;50.928;6.376;2022-10-13T09:50:59;16.20;99.90
16477;DHT22;8349;50.928;6.376;2022-10-13T09:53:29;16.20;99.90
16477;DHT22;8349;50.928;6.376;2022-10-13T09:56:07;16.10;99.90
16477;DHT22;8349;50.928;6.376;2022-10-13T09:58:34;16.00;99.90
16477;DHT22;8349;50.928;6.376;2022-10-13T10:01:02;15.90;99.90
16477;DHT22;8349;50.928;6.376;2022-10-13T10:03:30;15.80;99.90
16477;DHT22;8349;50.928;6.376;2022-10-13T10:06:00;15.80;99.90
16477;DHT22;8349;50.928;6.376;2022-10-13T10:08:28;15.80;99.90
16477;DHT22;8349;50.928;6.376;2022-10-13T10:10:58;15.90;99.90
16477;DHT22;8349;50.928;6.376;2022-10-13T10:13:25;15.90;99.90
16477;DHT22;8349;50.928;6.376;2022-10-13T10:15:53;15.90;99.90
16477;DHT22;8349;50.928;6.376;2022-10-13T10:18:24;15.90;99.90
16477;DHT22;8349;50.928;6.376;2022-10-13T10:20:55;16.00;99.90
16477;DHT22;8349;50.928;6.376;2022-10-13T10:23:30;15.90;99.90
16477;DHT22;8349;50.928;6.376;2022-10-13T10:25:58;15.90;99.90
16477;DHT22;8349;50.928;6.376;2022-10-13T10:28:31;16.00;99.90
16477;DHT22;8349;50.928;6.376;2022-10-13T10:31:04;16.00;99.90
16477;DHT22;8349;50.928;6.376;2022-10-13T10:33:34;15.80;99.90
16477;DHT22;8349;50.928;6.376;2022-10-13T10:36:03;15.80;99.90
16477;DHT22;8349;50.928;6.376;2022-10-13T10:38:34;15.80;99.90
16477;DHT22;8349;50.928;6.376;2022-10-13T10:41:07;15.90;99.90
16477;DHT22;8349;50.928;6.376;2022-10-13T10:43:42;15.80;99.90
16477;DHT22;8349;50.928;6.376;2022-10-13T10:46:16;15.80;99.90
16477;DHT22;8349;50.928;6.376;2022-10-13T10:48:44;15.80;99.90
16477;DHT22;8349;50.928;6.376;2022-10-13T10:51:13;15.70;99.90
16477;DHT22;8349;50.928;6.376;2022-10-13T10:53:44;15.60;99.90
16477;DHT22;8349;50.928;6.376;2022-10-13T10:56:14;15.60;99.90
16477;DHT22;8349;50.928;6.376;2022-10-13T10:58:44;15.70;99.90
16477;DHT22;8349;50.928;6.376;2022-10-13T11:01:18;15.70;99.90
16477;DHT22;8349;50.928;6.376;2022-10-13T11:03:49;15.70;99.90
16477;DHT22;8349;50.928;6.376;2022-10-13T11:06:24;15.80;99.90
16477;DHT22;8349;50.928;6.376;2022-10-13T11:08:53;15.80;99.90
16477;DHT22;8349;50.928;6.376;2022-10-13T11:11:30;15.70;99.90
16477;DHT22;8349;50.928;6.376;2022-10-13T11:13:58;15.60;99.90
16477;DHT22;8349;50.928;6.376;2022-10-13T11:16:26;15.60;99.90
16477;DHT22;8349;50.928;6.376;2022-10-13T11:18:54;15.60;99.90
16477;DHT22;8349;50.928;6.376;2022-10-13T11:21:26;15.60;99.90
16477;DHT22;8349;50.928;6.376;2022-10-13T11:26:56;15.60;99.90
16477;DHT22;8349;50.928;6.376;2022-10-13T11:29:50;15.60;99.90
16477;DHT22;8349;50.928;6.376;2022-10-13T11:35:17;15.60;99.90
16477;DHT22;8349;50.928;6.376;2022-10-13T11:37:47;15.70;99.90
16477;DHT22;8349;50.928;6.376;2022-10-13T11:40:19;15.90;99.90
16477;DHT22;8349;50.928;6.376;2022-10-13T11:45:56;15.80;99.90
16477;DHT22;8349;50.928;6.376;2022-10-13T11:48:30;15.90;99.90
16477;DHT22;8349;50.928;6.376;2022-10-13T11:51:04;16.10;99.90
16477;DHT22;8349;50.928;6.376;2022-10-13T11:53:39;16.30;99.90
16477;DHT22;8349;50.928;6.376;2022-10-13T11:56:17;16.40;99.90
16477;DHT22;8349;50.928;6.376;2022-10-13T11:58:44;16.40;99.90
16477;DHT22;8349;50.928;6.376;2022-10-13T12:01:13;16.70;99.90
16477;DHT22;8349;50.928;6.376;2022-10-13T12:03:41;16.80;99.90
16477;DHT22;8349;50.928;6.376;2022-10-13T12:06:24;16.90;99.90
16477;DHT22;8349;50.928;6.376;2022-10-13T12:08:57;16.80;99.90
16477;DHT22;8349;50.928;6.376;2022-10-13T12:11:26;16.70;99.90
16477;DHT22;8349;50.928;6.376;2022-10-13T12:13:54;16.60;99.90
16477;DHT22;8349;50.928;6.376;2022-10-13T12:16:22;16.60;99.90
16477;DHT22;8349;50.928;6.376;2022-10-13T12:18:49;16.70;99.90
16477;DHT22;8349;50.928;6.376;2022-10-13T12:21:17;16.80;99.90
16477;DHT22;8349;50.928;6.376;2022-10-13T12:23:45;16.90;99.90
16477;DHT22;8349;50.928;6.376;2022-10-13T12:26:13;17.00;99.90
16477;DHT22;8349;50.928;6.376;2022-10-13T12:28:45;16.90;99.90
16477;DHT22;8349;50.928;6.376;2022-10-13T12:31:17;16.80;99.90
16477;DHT22;8349;50.928;6.376;2022-10-13T12:33:50;16.80;99.90
16477;DHT22;8349;50.928;6.376;2022-10-13T12:36:17;16.70;99.90
16477;DHT22;8349;50.928;6.376;2022-10-13T12:38:45;16.70;99.90
16477;DHT22;8349;50.928;6.376;2022-10-13T12:41:16;16.70;99.90
16477;DHT22;8349;50.928;6.376;2022-10-13T12:43:43;16.70;99.90
16477;DHT22;8349;50.928;6.376;2022-10-13T12:46:11;16.70;99.90
16477;DHT22;8349;50.928;6.376;2022-10-13T12:48:37;16.70;99.90
16477;DHT22;8349;50.928;6.376;2022-10-13T12:51:07;16.70;99.90
16477;DHT22;8349;50.928;6.376;2022-10-13T12:53:35;16.70;99.90
16477;DHT22;8349;50.928;6.376;2022-10-13T12:56:03;16.50;99.90
16477;DHT22;8349;50.928;6.376;2022-10-13T12:58:33;16.50;99.90
16477;DHT22;8349;50.928;6.376;2022-10-13T13:01:07;16.50;99.90
16477;DHT22;8349;50.928;6.376;2022-10-13T13:03:35;16.40;99.90
16477;DHT22;8349;50.928;6.376;2022-10-13T13:06:08;16.30;99.90
16477;DHT22;8349;50.928;6.376;2022-10-13T13:08:38;16.30;99.90
16477;DHT22;8349;50.928;6.376;2022-10-13T13:11:06;16.20;99.90
16477;DHT22;8349;50.928;6.376;2022-10-13T13:13:42;16.20;99.90
16477;DHT22;8349;50.928;6.376;2022-10-13T13:16:12;16.10;99.90
16477;DHT22;8349;50.928;6.376;2022-10-13T13:18:40;16.10;99.90
16477;DHT22;8349;50.928;6.376;2022-10-13T13:21:10;16.10;99.90
16477;DHT22;8349;50.928;6.376;2022-10-13T13:23:40;16.10;99.90
16477;DHT22;8349;50.928;6.376;2022-10-13T13:26:10;16.30;99.90
16477;DHT22;8349;50.928;6.376;2022-10-13T13:28:39;16.30;99.90
16477;DHT22;8349;50.928;6.376;2022-10-13T13:31:08;16.30;99.90
16477;DHT22;8349;50.928;6.376;2022-10-13T13:33:36;16.30;99.90
16477;DHT22;8349;50.928;6.376;2022-10-13T13:36:02;16.30;99.90
16477;DHT22;8349;50.928;6.376;2022-10-13T13:38:31;16.30;99.90
16477;DHT22;8349;50.928;6.376;2022-10-13T13:40:58;16.30;99.90
16477;DHT22;8349;50.928;6.376;2022-10-13T13:43:24;16.30;99.90
16477;DHT22;8349;50.928;6.376;2022-10-13T13:45:51;16.30;99.90
16477;DHT22;8349;50.928;6.376;2022-10-13T13:48:18;16.30;99.90
16477;DHT22;8349;50.928;6.376;2022-10-13T13:50:45;16.30;99.90
16477;DHT22;8349;50.928;6.376;2022-10-13T13:53:12;16.30;99.90
16477;DHT22;8349;50.928;6.376;2022-10-13T13:55:40;16.20;99.90
16477;DHT22;8349;50.928;6.376;2022-10-13T13:58:08;16.30;99.90
16477;DHT22;8349;50.928;6.376;2022-10-13T14:00:35;16.20;99.90
16477;DHT22;8349;50.928;6.376;2022-10-13T14:03:02;16.20;99.90
16477;DHT22;8349;50.928;6.376;2022-10-13T14:05:29;16.20;99.90
16477;DHT22;8349;50.928;6.376;2022-10-13T14:07:55;16.20;99.90
16477;DHT22;8349;50.928;6.376;2022-10-13T14:10:23;16.20;99.90
16477;DHT22;8349;50.928;6.376;2022-10-13T14:12:52;16.30;99.90
16477;DHT22;8349;50.928;6.376;2022-10-13T14:15:19;16.30;99.90
16477;DHT22;8349;50.928;6.376;2022-10-13T14:17:45;16.30;99.90
16477;DHT22;8349;50.928;6.376;2022-10-13T14:20:12;16.40;99.90
16477;DHT22;8349;50.928;6.376;2022-10-13T14:22:40;16.40;99.90
16477;DHT22;8349;50.928;6.376;2022-10-13T14:25:07;16.30;99.90
16477;DHT22;8349;50.928;6.376;2022-10-13T14:27:35;16.30;99.90
16477;DHT22;8349;50.928;6.376;2022-10-13T14:30:04;16.20;99.90
16477;DHT22;8349;50.928;6.376;2022-10-13T14:32:31;16.10;99.90
16477;DHT22;8349;50.928;6.376;2022-10-13T14:34:58;16.10;99.90
16477;DHT22;8349;50.928;6.376;2022-10-13T14:37:25;16.00;99.90
16477;DHT22;8349;50.928;6.376;2022-10-13T14:39:51;15.90;99.90
16477;DHT22;8349;50.928;6.376;2022-10-13T14:42:18;15.80;99.90
16477;DHT22;8349;50.928;6.376;2022-10-13T14:44:45;15.80;99.90
16477;DHT22;8349;50.928;6.376;2022-10-13T14:47:13;15.80;99.90
16477;DHT22;8349;50.928;6.376;2022-10-13T14:49:40;15.70;99.90
16477;DHT22;8349;50.928;6.376;2022-10-13T14:52:07;15.70;99.90
16477;DHT22;8349;50.928;6.376;2022-10-13T14:54:34;15.60;99.90
16477;DHT22;8349;50.928;6.376;2022-10-13T14:57:01;15.60;99.90
16477;DHT22;8349;50.928;6.376;2022-10-13T14:59:30;15.60;99.90
16477;DHT22;8349;50.928;6.376;2022-10-13T15:01:56;15.50;99.90
16477;DHT22;8349;50.928;6.376;2022-10-13T15:04:24;15.50;99.90
16477;DHT22;8349;50.928;6.376;2022-10-13T15:06:51;15.40;99.90
16477;DHT22;8349;50.928;6.376;2022-10-13T15:09:17;15.40;99.90
16477;DHT22;8349;50.928;6.376;2022-10-13T15:11:44;15.40;99.90
16477;DHT22;8349;50.928;6.376;2022-10-13T15:14:12;15.40;99.90
16477;DHT22;8349;50.928;6.376;2022-10-13T15:16:38;15.40;99.90
16477;DHT22;8349;50.928;6.376;2022-10-13T15:19:05;15.40;99.90
16477;DHT22;8349;50.928;6.376;2022-10-13T15:21:33;15.30;99.90
16477;DHT22;8349;50.928;6.376;2022-10-13T15:24:01;15.30;99.90
16477;DHT22;8349;50.928;6.376;2022-10-13T15:26:28;15.30;99.90
16477;DHT22;8349;50.928;6.376;2022-10-13T15:28:55;15.30;99.90
16477;DHT22;8349;50.928;6.376;2022-10-13T15:31:22;15.20;99.90
16477;DHT22;8349;50.928;6.376;2022-10-13T15:33:49;15.20;99.90
16477;DHT22;8349;50.928;6.376;2022-10-13T15:36:17;15.30;99.90
16477;DHT22;8349;50.928;6.376;2022-10-13T15:38:46;15.20;99.90
16477;DHT22;8349;50.928;6.376;2022-10-13T15:41:13;15.20;99.90
16477;DHT22;8349;50.928;6.376;2022-10-13T15:43:40;15.20;99.90
16477;DHT22;8349;50.928;6.376;2022-10-13T15:46:08;15.10;99.90
16477;DHT22;8349;50.928;6.376;2022-10-13T15:48:36;15.00;99.90
16477;DHT22;8349;50.928;6.376;2022-10-13T15:51:04;15.00;99.90
16477;DHT22;8349;50.928;6.376;2022-10-13T15:53:34;15.00;99.90
16477;DHT22;8349;50.928;6.376;2022-10-13T15:56:02;15.00;99.90
16477;DHT22;8349;50.928;6.376;2022-10-13T15:58:29;15.00;99.90
16477;DHT22;8349;50.928;6.376;2022-10-13T16:00:56;15.00;99.90
16477;DHT22;8349;50.928;6.376;2022-10-13T16:03:22;15.00;99.90
16477;DHT22;8349;50.928;6.376;2022-10-13T16:05:54;15.10;99.90
16477;DHT22;8349;50.928;6.376;2022-10-13T16:08:20;15.00;99.90
16477;DHT22;8349;50.928;6.376;2022-10-13T16:10:47;14.90;99.90
16477;DHT22;8349;50.928;6.376;2022-10-13T16:13:15;14.80;99.90
16477;DHT22;8349;50.928;6.376;2022-10-13T16:15:42;14.70;99.90
16477;DHT22;8349;50.928;6.376;2022-10-13T16:18:09;14.70;99.90
16477;DHT22;8349;50.928;6.376;2022-10-13T16:20:36;14.60;99.90
16477;DHT22;8349;50.928;6.376;2022-10-13T16:23:05;14.50;99.90
16477;DHT22;8349;50.928;6.376;2022-10-13T16:25:31;14.40;99.90
16477;DHT22;8349;50.928;6.376;2022-10-13T16:27:58;14.30;99.90
16477;DHT22;8349;50.928;6.376;2022-10-13T16:30:27;14.30;99.90
16477;DHT22;8349;50.928;6.376;2022-10-13T16:32:54;14.20;99.90
16477;DHT22;8349;50.928;6.376;2022-10-13T16:35:21;14.10;99.90
16477;DHT22;8349;50.928;6.376;2022-10-13T16:37:48;14.10;99.90
16477;DHT22;8349;50.928;6.376;2022-10-13T16:40:15;14.00;99.90
16477;DHT22;8349;50.928;6.376;2022-10-13T16:42:41;13.90;99.90
16477;DHT22;8349;50.928;6.376;2022-10-13T16:45:09;13.90;99.90
16477;DHT22;8349;50.928;6.376;2022-10-13T16:47:38;13.90;99.90
16477;DHT22;8349;50.928;6.376;2022-10-13T16:50:06;13.80;99.90
16477;DHT22;8349;50.928;6.376;2022-10-13T16:52:34;13.70;99.90
16477;DHT22;8349;50.928;6.376;2022-10-13T16:55:00;13.70;99.90
16477;DHT22;8349;50.928;6.376;2022-10-13T16:57:27;13.70;99.90
16477;DHT22;8349;50.928;6.376;2022-10-13T16:59:54;13.60;99.90
16477;DHT22;8349;50.928;6.376;2022-10-13T17:02:26;13.60;99.90
16477;DHT22;8349;50.928;6.376;2022-10-13T17:04:55;13.60;99.90
16477;DHT22;8349;50.928;6.376;2022-10-13T17:07:21;13.60;99.90
16477;DHT22;8349;50.928;6.376;2022-10-13T17:09:48;13.60;99.90
16477;DHT22;8349;50.928;6.376;2022-10-13T17:12:15;13.60;99.90
16477;DHT22;8349;50.928;6.376;2022-10-13T17:14:42;13.60;99.90
16477;DHT22;8349;50.928;6.376;2022-10-13T17:17:08;13.60;99.90
16477;DHT22;8349;50.928;6.376;2022-10-13T17:19:35;13.60;99.90
16477;DHT22;8349;50.928;6.376;2022-10-13T17:22:03;13.60;99.90
16477;DHT22;8349;50.928;6.376;2022-10-13T17:24:30;13.60;99.90
16477;DHT22;8349;50.928;6.376;2022-10-13T17:26:57;13.60;99.90
16477;DHT22;8349;50.928;6.376;2022-10-13T17:29:24;13.60;99.90
16477;DHT22;8349;50.928;6.376;2022-10-13T17:31:52;13.60;99.90
16477;DHT22;8349;50.928;6.376;2022-10-13T17:34:20;13.60;99.90
16477;DHT22;8349;50.928;6.376;2022-10-13T17:36:49;13.50;99.90
16477;DHT22;8349;50.928;6.376;2022-10-13T17:39:18;13.50;99.90
16477;DHT22;8349;50.928;6.376;2022-10-13T17:41:44;13.60;99.90
16477;DHT22;8349;50.928;6.376;2022-10-13T17:44:11;13.60;99.90
16477;DHT22;8349;50.928;6.376;2022-10-13T17:46:40;13.60;99.90
16477;DHT22;8349;50.928;6.376;2022-10-13T17:49:08;13.60;99.90
16477;DHT22;8349;50.928;6.376;2022-10-13T17:51:35;13.60;99.90
16477;DHT22;8349;50.928;6.376;2022-10-13T17:54:02;13.60;99.90
16477;DHT22;8349;50.928;6.376;2022-10-13T17:56:31;13.60;99.90
16477;DHT22;8349;50.928;6.376;2022-10-13T17:58:58;13.60;99.90
16477;DHT22;8349;50.928;6.376;2022-10-13T18:01:26;13.60;99.90
16477;DHT22;8349;50.928;6.376;2022-10-13T18:03:54;13.70;99.90
16477;DHT22;8349;50.928;6.376;2022-10-13T18:06:25;13.70;99.90
16477;DHT22;8349;50.928;6.376;2022-10-13T18:08:51;13.70;99.90
16477;DHT22;8349;50.928;6.376;2022-10-13T18:11:19;13.70;99.90
16477;DHT22;8349;50.928;6.376;2022-10-13T18:13:47;13.70;99.90
16477;DHT22;8349;50.928;6.376;2022-10-13T18:16:15;13.70;99.90
16477;DHT22;8349;50.928;6.376;2022-10-13T18:18:42;13.70;99.90
16477;DHT22;8349;50.928;6.376;2022-10-13T18:21:10;13.60;99.90
16477;DHT22;8349;50.928;6.376;2022-10-13T18:23:37;13.50;99.90
16477;DHT22;8349;50.928;6.376;2022-10-13T18:26:05;13.50;99.90
16477;DHT22;8349;50.928;6.376;2022-10-13T18:28:32;13.50;99.90
16477;DHT22;8349;50.928;6.376;2022-10-13T18:31:05;13.40;99.90
16477;DHT22;8349;50.928;6.376;2022-10-13T18:33:32;13.40;99.90
16477;DHT22;8349;50.928;6.376;2022-10-13T18:35:58;13.40;99.90
16477;DHT22;8349;50.928;6.376;2022-10-13T18:38:25;13.30;99.90
16477;DHT22;8349;50.928;6.376;2022-10-13T18:40:52;13.30;99.90
16477;DHT22;8349;50.928;6.376;2022-10-13T18:43:19;13.30;99.90
16477;DHT22;8349;50.928;6.376;2022-10-13T18:45:46;13.30;99.90
16477;DHT22;8349;50.928;6.376;2022-10-13T18:48:14;13.30;99.90
16477;DHT22;8349;50.928;6.376;2022-10-13T18:50:41;13.20;99.90
16477;DHT22;8349;50.928;6.376;2022-10-13T18:53:08;13.20;99.90
16477;DHT22;8349;50.928;6.376;2022-10-13T18:55:35;13.20;99.90
16477;DHT22;8349;50.928;6.376;2022-10-13T18:58:01;13.20;99.90
16477;DHT22;8349;50.928;6.376;2022-10-13T19:00:28;13.20;99.90